Time;durP1;ratioP1;P1;durP2;ratioP2;P2;SDS_P1;SDS_P2;PMS_P1;PMS_P2;Temp;Humidity;BMP_temperature;BMP_pressure;BME280_temperature;BME280_humidity;BME280_pressure;Samples;Min_cycle;Max_cycle;Signal;HPM_P1;HPM_P2
2021/05/20 00:00:09;;;;;;;9.57;5.67;;;9.30;86.70;;;;;;5037637;28;20172;-84
2021/05/20 00:02:36;;;;;;;7.43;5.23;;;9.30;86.60;;;;;;5055358;28;20694;-85
2021/05/20 00:05:02;;;;;;;6.70;4.67;;;9.30;86.50;;;;;;5036853;28;20187;-84
2021/05/20 00:07:27;;;;;;;4.93;4.47;;;9.20;86.40;;;;;;5054710;28;20276;-84
2021/05/20 00:09:53;;;;;;;7.83;4.90;;;9.30;86.60;;;;;;5055285;28;20168;-84
2021/05/20 00:12:19;;;;;;;5.27;4.73;;;9.30;86.60;;;;;;5055252;28;20536;-84
2021/05/20 00:14:44;;;;;;;5.30;4.53;;;9.30;86.40;;;;;;5037348;28;20198;-84
2021/05/20 00:17:10;;;;;;;7.50;4.70;;;9.30;86.60;;;;;;5055115;28;20195;-84
2021/05/20 00:19:36;;;;;;;7.60;4.47;;;9.30;86.70;;;;;;5037260;28;20222;-84
2021/05/20 00:22:02;;;;;;;7.63;4.50;;;9.30;86.70;;;;;;5055028;28;20222;-85
2021/05/20 00:24:27;;;;;;;5.70;4.23;;;9.30;86.50;;;;;;5055072;28;20211;-84
2021/05/20 00:26:53;;;;;;;7.43;4.37;;;9.30;86.60;;;;;;5036977;28;20210;-84
2021/05/20 00:29:18;;;;;;;5.43;4.60;;;9.30;86.40;;;;;;5055210;28;20641;-84
2021/05/20 00:31:44;;;;;;;5.03;4.37;;;9.30;86.20;;;;;;5054939;28;20248;-86
2021/05/20 00:34:09;;;;;;;5.53;4.93;;;9.30;86.10;;;;;;5037045;28;20541;-86
2021/05/20 00:36:35;;;;;;;7.07;4.63;;;9.30;86.20;;;;;;5054690;28;20191;-86
2021/05/20 00:39:02;;;;;;;8.33;5.10;;;9.30;86.30;;;;;;5054689;28;20176;-85
2021/05/20 00:41:28;;;;;;;6.87;5.03;;;9.30;86.40;;;;;;5054656;28;20172;-85
2021/05/20 00:43:54;;;;;;;7.00;4.93;;;9.30;87.00;;;;;;5054752;28;20230;-84
2021/05/20 00:46:20;;;;;;;6.97;5.40;;;9.30;87.00;;;;;;5036399;28;20563;-86
2021/05/20 00:48:45;;;;;;;5.80;5.30;;;9.30;87.20;;;;;;5036761;28;20176;-86
2021/05/20 00:51:11;;;;;;;6.03;4.93;;;9.30;87.40;;;;;;5054532;28;20173;-86
2021/05/20 00:53:37;;;;;;;7.23;5.37;;;9.30;87.30;;;;;;5036527;28;20183;-86
2021/05/20 00:56:03;;;;;;;9.60;5.70;;;9.30;87.40;;;;;;5036469;28;20173;-86
2021/05/20 00:58:29;;;;;;;8.70;5.73;;;9.30;87.20;;;;;;5036312;28;20202;-87
2021/05/20 01:00:55;;;;;;;6.70;5.37;;;9.30;87.10;;;;;;5036383;28;20266;-87
2021/05/20 01:03:24;;;;;;;6.20;5.40;;;9.30;87.20;;;;;;5036425;28;20720;-87
2021/05/20 01:05:53;;;;;;;7.50;6.10;;;9.30;87.00;;;;;;5036400;28;20172;-85
2021/05/20 01:08:20;;;;;;;10.33;6.30;;;9.30;87.10;;;;;;5036139;28;20215;-85
2021/05/20 01:10:45;;;;;;;7.53;5.10;;;9.30;86.90;;;;;;5036257;28;20168;-85
2021/05/20 01:13:11;;;;;;;6.13;5.30;;;9.30;87.20;;;;;;5036260;28;20182;-85
2021/05/20 01:15:37;;;;;;;6.80;5.37;;;9.30;87.10;;;;;;5054017;28;20172;-84
2021/05/20 01:18:05;;;;;;;6.20;5.60;;;9.30;86.70;;;;;;5053685;28;20195;-84
2021/05/20 01:20:36;;;;;;;7.17;5.50;;;9.30;86.50;;;;;;5036119;28;20608;-84
2021/05/20 01:23:17;;;;;;;6.90;5.33;;;9.30;86.40;;;;;;5036114;28;20203;-85
2021/05/20 01:25:46;;;;;;;7.87;4.53;;;9.30;86.40;;;;;;5036049;28;20176;-85
2021/05/20 01:28:19;;;;;;;5.13;4.63;;;9.30;86.30;;;;;;5035785;28;20211;-85
2021/05/20 01:30:46;;;;;;;5.17;4.60;;;9.30;85.80;;;;;;5035887;28;20176;-85
2021/05/20 01:33:12;;;;;;;5.03;4.30;;;9.30;85.30;;;;;;5035867;28;20183;-85
2021/05/20 01:35:39;;;;;;;4.77;4.37;;;9.30;84.60;;;;;;5035829;28;20174;-86
2021/05/20 01:38:40;;;;;;;9.03;4.70;;;9.30;84.30;;;;;;5035679;28;20203;-86
2021/05/20 01:40:56;;;;;;;6.50;4.73;;;9.30;84.50;;;;;;5053006;28;20197;-86
2021/05/20 01:43:23;;;;;;;4.13;3.80;;;9.20;85.00;;;;;;5053838;28;20525;-86
2021/05/20 01:45:55;;;;;;;5.87;4.37;;;9.10;85.60;;;;;;5035653;28;20210;-87
2021/05/20 01:48:21;;;;;;;5.60;4.13;;;9.00;85.80;;;;;;5035514;28;20235;-87
2021/05/20 01:50:46;;;;;;;4.00;3.67;;;9.00;86.00;;;;;;5053406;28;20203;-86
2021/05/20 01:53:12;;;;;;;4.30;3.90;;;8.90;85.80;;;;;;5053399;28;20631;-87
2021/05/20 01:55:39;;;;;;;5.57;4.07;;;8.90;85.60;;;;;;5053381;28;20218;-87
2021/05/20 01:58:04;;;;;;;7.37;4.27;;;8.80;85.80;;;;;;5035323;28;20210;-87
2021/05/20 02:00:30;;;;;;;4.80;3.83;;;8.70;86.10;;;;;;5053263;28;20177;-86
2021/05/20 02:02:56;;;;;;;4.70;4.30;;;8.80;86.10;;;;;;5035664;28;20181;-86
2021/05/20 02:05:21;;;;;;;8.97;4.93;;;8.70;86.50;;;;;;5053215;28;20184;-86
2021/05/20 02:07:47;;;;;;;6.27;5.30;;;8.70;86.60;;;;;;5035270;28;20218;-86
2021/05/20 02:10:13;;;;;;;5.57;5.03;;;8.70;86.40;;;;;;5053467;28;20171;-86
2021/05/20 02:12:38;;;;;;;6.83;5.33;;;8.70;86.50;;;;;;5053347;28;20172;-86
2021/05/20 02:15:05;;;;;;;7.83;6.50;;;8.70;86.50;;;;;;5035297;28;20183;-86
2021/05/20 02:17:31;;;;;;;7.60;6.10;;;8.60;86.80;;;;;;5035155;28;20200;-86
2021/05/20 02:19:57;;;;;;;7.80;7.10;;;8.60;86.90;;;;;;5035277;28;20263;-86
2021/05/20 02:22:23;;;;;;;7.50;6.63;;;8.70;87.10;;;;;;5035106;28;20608;-86
2021/05/20 02:24:49;;;;;;;7.50;6.70;;;8.60;87.40;;;;;;5035141;28;20175;-86
2021/05/20 02:27:14;;;;;;;7.83;7.10;;;8.50;87.60;;;;;;5035053;28;20207;-86
2021/05/20 02:29:40;;;;;;;8.77;7.67;;;8.60;87.80;;;;;;5037435;28;20215;-86
2021/05/20 02:32:05;;;;;;;9.70;7.77;;;8.50;88.00;;;;;;5057163;28;20271;-86
2021/05/20 02:34:31;;;;;;;8.30;7.50;;;8.60;88.20;;;;;;5057076;28;20167;-86
2021/05/20 02:36:57;;;;;;;11.17;7.83;;;8.60;88.30;;;;;;5056983;28;20242;-86
2021/05/20 02:39:22;;;;;;;8.73;7.83;;;8.60;88.50;;;;;;5057237;28;20176;-86
2021/05/20 02:41:49;;;;;;;8.97;7.90;;;8.70;88.80;;;;;;5057224;28;20172;-86
2021/05/20 02:44:15;;;;;;;11.00;8.50;;;8.60;88.80;;;;;;5057138;28;20172;-86
2021/05/20 02:46:41;;;;;;;9.70;8.03;;;8.70;88.80;;;;;;5022522;28;20577;-86
2021/05/20 02:49:06;;;;;;;10.27;8.77;;;8.60;88.80;;;;;;5057086;28;20156;-86
2021/05/20 02:51:32;;;;;;;12.87;8.47;;;8.60;88.80;;;;;;5056730;28;20175;-86
2021/05/20 02:53:58;;;;;;;12.03;9.80;;;8.50;89.00;;;;;;5056824;28;20632;-86
2021/05/20 02:56:23;;;;;;;10.53;9.53;;;8.50;89.30;;;;;;5056586;28;20175;-86
2021/05/20 02:58:49;;;;;;;11.60;10.40;;;8.50;89.40;;;;;;5056651;28;20195;-86
2021/05/20 03:01:14;;;;;;;11.87;10.40;;;8.50;89.50;;;;;;5038804;28;20241;-86
2021/05/20 03:03:40;;;;;;;11.80;10.50;;;8.50;89.70;;;;;;5038721;28;20627;-86
2021/05/20 03:06:06;;;;;;;14.77;11.97;;;8.50;89.80;;;;;;5038558;28;20176;-86
2021/05/20 03:08:32;;;;;;;16.80;11.83;;;8.60;89.80;;;;;;5056337;28;20196;-86
2021/05/20 03:10:58;;;;;;;14.43;12.13;;;8.60;89.90;;;;;;5056443;28;20651;-86
2021/05/20 03:13:24;;;;;;;15.13;13.53;;;8.60;89.70;;;;;;5038464;28;20180;-86
2021/05/20 03:15:50;;;;;;;14.17;12.77;;;8.70;89.70;;;;;;5056323;28;20168;-87
2021/05/20 03:18:15;;;;;;;16.90;11.90;;;8.70;89.50;;;;;;5038354;28;20230;-86
2021/05/20 03:20:41;;;;;;;15.00;12.33;;;8.70;89.70;;;;;;5038324;28;20187;-86
2021/05/20 03:23:06;;;;;;;17.57;13.97;;;8.70;89.70;;;;;;5038321;28;20205;-86
2021/05/20 03:25:34;;;;;;;15.60;13.20;;;8.70;89.70;;;;;;5056151;28;20179;-86
2021/05/20 03:28:00;;;;;;;14.80;12.97;;;8.70;89.80;;;;;;5038100;28;20238;-86
2021/05/20 03:30:26;;;;;;;14.40;12.93;;;8.70;89.80;;;;;;5038218;28;20207;-86
2021/05/20 03:32:52;;;;;;;15.03;13.53;;;8.80;89.90;;;;;;5055986;28;20699;-87
2021/05/20 03:35:17;;;;;;;13.73;12.33;;;9.10;89.60;;;;;;5055971;28;20180;-87
2021/05/20 03:37:43;;;;;;;13.47;12.03;;;9.30;88.60;;;;;;5038041;28;20573;-87
2021/05/20 03:40:09;;;;;;;15.57;11.63;;;9.30;87.70;;;;;;5037927;28;20187;-86
2021/05/20 03:42:36;;;;;;;14.57;11.17;;;9.20;87.70;;;;;;5038021;28;20183;-86
2021/05/20 03:45:05;;;;;;;11.87;10.37;;;9.40;87.60;;;;;;5037992;28;20647;-86
2021/05/20 03:47:30;;;;;;;11.83;10.53;;;9.50;86.70;;;;;;5148659;22;20224;-87
2021/05/20 03:49:56;;;;;;;11.53;10.33;;;9.30;86.50;;;;;;5055697;28;20252;-87
2021/05/20 03:52:22;;;;;;;12.63;11.33;;;9.50;86.70;;;;;;5037871;28;20648;-87
2021/05/20 03:54:48;;;;;;;13.57;10.60;;;9.20;86.10;;;;;;5055740;28;20164;-87
2021/05/20 03:57:14;;;;;;;12.43;10.93;;;9.00;86.80;;;;;;5037839;28;20203;-87
2021/05/20 03:59:39;;;;;;;12.83;11.53;;;8.90;86.80;;;;;;5037731;28;20266;-87
2021/05/20 04:02:05;;;;;;;13.53;12.10;;;8.80;87.20;;;;;;5055591;28;20258;-87
2021/05/20 04:04:31;;;;;;;16.13;13.23;;;8.80;87.50;;;;;;5037527;28;20180;-88
2021/05/20 04:06:57;;;;;;;15.60;13.03;;;8.60;87.90;;;;;;5037631;28;20592;-87
2021/05/20 04:09:23;;;;;;;15.27;13.67;;;8.60;88.10;;;;;;5037473;28;20551;-87
2021/05/20 04:11:48;;;;;;;15.33;13.53;;;8.60;88.20;;;;;;5037597;28;20176;-87
2021/05/20 04:14:14;;;;;;;18.50;14.53;;;8.60;88.20;;;;;;5055352;28;20172;-87
2021/05/20 04:16:39;;;;;;;17.97;14.63;;;8.40;88.50;;;;;;5055075;28;20172;-87
2021/05/20 04:19:05;;;;;;;18.03;14.40;;;8.30;88.80;;;;;;5055244;28;20176;-87
2021/05/20 04:21:33;;;;;;;16.97;14.70;;;8.40;89.10;;;;;;5037174;28;20172;-87
2021/05/20 04:23:59;;;;;;;20.13;16.60;;;8.40;89.30;;;;;;5055127;28;20167;-87
2021/05/20 04:26:25;;;;;;;19.70;16.33;;;8.40;89.50;;;;;;5037097;28;20303;-87
2021/05/20 04:28:50;;;;;;;19.13;16.17;;;8.60;89.70;;;;;;5054991;28;20187;-87
2021/05/20 04:31:17;;;;;;;21.37;17.03;;;8.60;89.60;;;;;;5055310;28;20169;-87
2021/05/20 04:33:43;;;;;;;18.50;16.60;;;8.50;89.70;;;;;;5037114;28;20180;-87
2021/05/20 04:36:09;;;;;;;19.73;17.17;;;8.60;89.90;;;;;;5054830;28;20168;-87
2021/05/20 04:38:35;;;;;;;27.00;18.00;;;8.60;90.00;;;;;;5054682;28;20192;-87
2021/05/20 04:41:00;;;;;;;20.73;16.60;;;8.60;90.10;;;;;;5036954;28;20183;-87
2021/05/20 04:43:26;;;;;;;21.23;18.90;;;8.60;90.20;;;;;;5036906;28;20636;-88
2021/05/20 04:45:52;;;;;;;27.00;19.73;;;8.60;90.30;;;;;;5054655;28;20255;-88
2021/05/20 04:48:17;;;;;;;21.97;18.70;;;8.70;90.30;;;;;;5054375;28;20215;-87
2021/05/20 04:50:43;;;;;;;26.50;19.63;;;8.70;90.30;;;;;;5037122;28;20176;-87
2021/05/20 04:53:09;;;;;;;25.17;21.33;;;8.70;90.50;;;;;;5054094;28;20172;-88
2021/05/20 04:55:35;;;;;;;24.00;20.33;;;8.80;90.40;;;;;;5054518;28;20172;-88
2021/05/20 04:58:01;;;;;;;25.73;20.83;;;8.80;90.30;;;;;;5036608;28;20227;-87
2021/05/20 05:00:26;;;;;;;29.50;20.90;;;8.90;90.40;;;;;;5036733;28;20180;-88
2021/05/20 05:02:52;;;;;;;26.40;19.27;;;8.90;90.30;;;;;;5036685;28;20190;-87
2021/05/20 05:05:18;;;;;;;26.60;20.90;;;9.00;90.20;;;;;;5054364;28;20254;-87
2021/05/20 05:07:44;;;;;;;24.47;20.33;;;9.00;90.20;;;;;;5037034;28;20623;-88
2021/05/20 05:10:10;;;;;;;28.83;20.27;;;8.90;90.10;;;;;;5054232;28;20168;-88
2021/05/20 05:12:36;;;;;;;22.63;19.17;;;9.10;90.20;;;;;;5036395;28;20187;-88
2021/05/20 05:15:02;;;;;;;25.93;20.83;;;9.00;90.00;;;;;;5036412;28;20579;-88
2021/05/20 05:17:28;;;;;;;23.47;21.03;;;9.00;90.00;;;;;;5036117;28;20287;-88
2021/05/20 05:19:53;;;;;;;30.27;21.23;;;9.00;90.00;;;;;;5054116;28;20199;-88
2021/05/20 05:22:20;;;;;;;26.43;19.10;;;8.90;90.00;;;;;;5054020;28;20547;-88
2021/05/20 05:24:46;;;;;;;25.43;20.90;;;8.90;89.90;;;;;;5053926;28;20172;-88
2021/05/20 05:27:11;;;;;;;27.57;20.90;;;8.80;90.00;;;;;;5035992;28;20230;-88
2021/05/20 05:29:37;;;;;;;23.53;19.73;;;8.90;90.30;;;;;;5036202;28;20168;-88
2021/05/20 05:32:03;;;;;;;27.87;22.13;;;9.00;90.20;;;;;;5036469;28;20198;-88
2021/05/20 05:34:29;;;;;;;22.93;19.27;;;9.10;90.30;;;;;;5036104;28;20168;-88
2021/05/20 05:36:54;;;;;;;25.30;20.37;;;9.20;90.00;;;;;;5053724;28;20242;-88
2021/05/20 05:39:20;;;;;;;22.77;18.97;;;9.20;89.70;;;;;;5035922;28;20643;-87
2021/05/20 05:41:46;;;;;;;23.40;18.67;;;9.20;89.80;;;;;;5035822;28;20179;-88
2021/05/20 05:44:12;;;;;;;25.97;18.37;;;9.20;89.70;;;;;;5035755;28;20187;-88
2021/05/20 05:46:39;;;;;;;20.93;18.70;;;9.20;89.80;;;;;;5053437;28;20199;-88
2021/05/20 05:49:14;;;;;;;23.27;19.13;;;9.20;89.70;;;;;;5035607;28;20237;-88
2021/05/20 05:51:44;;;;;;;21.20;18.00;;;9.20;89.70;;;;;;5035794;28;20163;-88
2021/05/20 05:54:09;;;;;;;20.30;18.03;;;9.40;89.80;;;;;;5035814;28;20179;-88
2021/05/20 05:56:36;;;;;;;21.63;18.83;;;9.60;89.60;;;;;;5035600;28;20175;-88
2021/05/20 05:59:02;;;;;;;19.90;17.50;;;9.70;89.30;;;;;;5035933;28;20205;-88
2021/05/20 06:01:28;;;;;;;19.13;16.70;;;9.80;89.40;;;;;;5053307;28;20603;-88
2021/05/20 06:03:54;;;;;;;24.10;18.00;;;9.90;89.00;;;;;;5034816;28;20275;-88
2021/05/20 06:06:19;;;;;;;22.70;17.60;;;10.00;88.90;;;;;;5035418;28;20216;-88
2021/05/20 06:08:45;;;;;;;23.43;17.53;;;10.00;88.40;;;;;;5035438;28;20196;-88
2021/05/20 06:11:11;;;;;;;19.03;16.23;;;10.30;88.90;;;;;;5053166;28;20229;-88
2021/05/20 06:13:36;;;;;;;23.60;16.00;;;10.40;88.30;;;;;;5035381;28;20651;-88
2021/05/20 06:16:02;;;;;;;20.67;15.90;;;10.50;87.70;;;;;;5035353;28;20176;-88
2021/05/20 06:18:28;;;;;;;16.93;15.23;;;10.50;88.00;;;;;;5053060;28;20619;-88
2021/05/20 06:20:53;;;;;;;15.33;13.17;;;10.50;87.40;;;;;;5035330;28;20679;-88
2021/05/20 06:23:19;;;;;;;16.60;14.30;;;10.50;86.70;;;;;;5053147;28;20551;-88
2021/05/20 06:25:46;;;;;;;16.03;14.30;;;10.30;86.90;;;;;;5053194;28;20207;-88
2021/05/20 06:28:11;;;;;;;19.00;14.17;;;10.50;87.70;;;;;;5053037;28;20273;-88
2021/05/20 06:30:37;;;;;;;16.27;13.77;;;10.60;87.20;;;;;;5035269;28;20691;-89
2021/05/20 06:33:03;;;;;;;16.30;13.60;;;10.60;87.20;;;;;;5035118;28;20544;-88
2021/05/20 06:35:29;;;;;;;16.67;13.67;;;10.70;86.80;;;;;;5035109;28;20640;-88
2021/05/20 06:37:54;;;;;;;18.23;14.03;;;10.80;86.60;;;;;;5035083;28;20207;-88
2021/05/20 06:40:20;;;;;;;15.17;13.00;;;10.80;86.70;;;;;;5035210;28;20180;-88
2021/05/20 06:42:46;;;;;;;18.83;14.50;;;10.90;86.00;;;;;;5052989;28;20172;-88
2021/05/20 06:45:12;;;;;;;17.70;13.23;;;11.00;86.60;;;;;;5035464;28;20211;-88
2021/05/20 06:47:38;;;;;;;14.60;12.87;;;11.00;85.40;;;;;;5034867;28;20242;-88
2021/05/20 06:50:04;;;;;;;19.37;14.03;;;11.00;86.00;;;;;;5035058;28;20176;-88
2021/05/20 06:52:30;;;;;;;18.43;12.70;;;10.90;85.60;;;;;;5034996;28;20259;-88
2021/05/20 06:54:56;;;;;;;15.67;12.67;;;11.00;85.40;;;;;;5035097;28;20203;-88
2021/05/20 06:57:28;;;;;;;14.30;12.83;;;11.00;84.30;;;;;;5052793;28;20631;-88
2021/05/20 06:59:57;;;;;;;12.77;11.50;;;11.20;85.80;;;;;;5034948;28;20222;-88
2021/05/20 07:02:23;;;;;;;15.40;11.13;;;11.30;84.60;;;;;;5035987;28;20179;-88
2021/05/20 07:04:49;;;;;;;15.17;11.07;;;11.20;84.30;;;;;;5034914;28;20183;-88
2021/05/20 07:07:15;;;;;;;14.17;10.80;;;11.30;83.90;;;;;;5052586;28;20204;-88
2021/05/20 07:09:41;;;;;;;10.50;8.87;;;11.50;83.70;;;;;;5034854;28;20218;-88
2021/05/20 07:12:08;;;;;;;13.80;9.33;;;11.70;82.80;;;;;;5052701;28;20169;-88
2021/05/20 07:14:33;;;;;;;15.43;10.47;;;11.60;83.00;;;;;;5035051;28;20640;-89
2021/05/20 07:16:59;;;;;;;10.43;8.13;;;11.50;83.20;;;;;;5056289;28;20275;-89
2021/05/20 07:19:25;;;;;;;10.07;7.80;;;11.50;81.80;;;;;;5056319;28;20172;-88
2021/05/20 07:21:51;;;;;;;12.93;8.10;;;11.60;81.00;;;;;;5038761;28;20210;-88
2021/05/20 07:24:17;;;;;;;8.77;7.50;;;11.80;81.70;;;;;;5038373;28;20176;-89
2021/05/20 07:26:43;;;;;;;9.40;6.77;;;11.90;79.80;;;;;;5038189;28;20210;-88
2021/05/20 07:29:09;;;;;;;9.23;7.27;;;11.70;79.80;;;;;;5038231;28;20262;-88
2021/05/20 07:31:35;;;;;;;9.20;6.93;;;11.90;80.50;;;;;;5038368;28;20207;-88
2021/05/20 07:34:01;;;;;;;10.80;8.00;;;11.80;79.80;;;;;;5038338;28;20618;-88
2021/05/20 07:36:26;;;;;;;11.33;8.73;;;11.70;79.90;;;;;;5038271;28;20179;-88
2021/05/20 07:38:52;;;;;;;9.90;7.90;;;11.70;80.50;;;;;;5055915;28;20600;-88
2021/05/20 07:41:18;;;;;;;7.87;7.00;;;11.90;80.00;;;;;;5055953;28;20222;-89
2021/05/20 07:43:44;;;;;;;6.67;6.00;;;12.10;80.50;;;;;;5038102;28;20249;-89
2021/05/20 07:46:11;;;;;;;6.27;5.67;;;12.00;77.10;;;;;;5038399;28;20172;-89
2021/05/20 07:48:37;;;;;;;7.67;5.83;;;12.10;77.10;;;;;;5037737;28;20222;-88
2021/05/20 07:51:05;;;;;;;6.80;5.63;;;12.30;77.10;;;;;;5037883;28;20627;-88
2021/05/20 07:53:31;;;;;;;7.63;5.47;;;12.40;78.80;;;;;;5037775;28;20259;-89
2021/05/20 07:55:57;;;;;;;10.53;6.50;;;12.50;77.30;;;;;;5055639;28;20693;-88
2021/05/20 07:58:23;;;;;;;9.17;7.00;;;12.40;76.90;;;;;;5037743;28;20200;-88
2021/05/20 08:00:49;;;;;;;6.40;5.53;;;12.50;77.10;;;;;;5037718;28;20565;-88
2021/05/20 08:04:03;;;;;;;6.40;5.50;;;12.70;77.20;;;;;;5037560;28;20214;-88
2021/05/20 08:09:13;;;;;;;8.83;6.30;;;12.90;76.70;;;;;;5055301;28;20256;-88
2021/05/20 08:11:21;;;;;;;7.57;6.87;;;12.80;76.00;;;;;;5051357;28;20184;-88
2021/05/20 08:13:47;;;;;;;7.50;6.77;;;12.50;76.00;;;;;;5037842;28;20176;-88
2021/05/20 08:16:13;;;;;;;7.73;6.87;;;12.40;77.50;;;;;;5055686;28;20183;-88
2021/05/20 08:18:39;;;;;;;9.10;7.10;;;12.30;78.20;;;;;;5055165;28;20195;-88
2021/05/20 08:21:06;;;;;;;6.60;6.00;;;12.00;78.40;;;;;;5037487;28;20176;-89
2021/05/20 08:23:33;;;;;;;6.90;6.20;;;12.10;79.00;;;;;;5037357;28;20172;-88
2021/05/20 08:26:00;;;;;;;7.60;6.13;;;12.30;78.70;;;;;;5054605;28;20196;-88
2021/05/20 08:28:26;;;;;;;11.47;7.23;;;12.30;78.40;;;;;;5054375;28;20246;-88
2021/05/20 08:30:52;;;;;;;7.30;6.10;;;12.10;77.30;;;;;;5054991;28;20172;-88
2021/05/20 08:33:18;;;;;;;10.37;6.87;;;12.10;78.70;;;;;;5055289;28;20168;-87
2021/05/20 08:35:44;;;;;;;11.17;7.27;;;12.00;77.40;;;;;;5037083;28;20169;-87
2021/05/20 08:38:10;;;;;;;7.50;6.73;;;12.00;78.90;;;;;;5054928;28;20294;-88
2021/05/20 08:40:35;;;;;;;9.70;6.67;;;12.00;78.50;;;;;;5037083;28;20555;-88
2021/05/20 08:43:01;;;;;;;11.47;8.57;;;12.10;78.90;;;;;;5055038;28;20168;-88
2021/05/20 08:45:30;;;;;;;11.63;9.07;;;12.30;78.40;;;;;;5054774;28;20176;-88
2021/05/20 08:47:57;;;;;;;9.37;8.07;;;12.80;80.10;;;;;;5036545;28;20212;-88
2021/05/20 08:50:26;;;;;;;15.23;7.80;;;12.80;76.50;;;;;;5036847;28;20184;-87
2021/05/20 08:52:52;;;;;;;10.37;6.80;;;12.70;76.90;;;;;;5054774;28;20176;-87
2021/05/20 08:55:27;;;;;;;10.93;7.20;;;12.50;75.90;;;;;;5036626;28;20769;-87
2021/05/20 08:57:55;;;;;;;9.80;7.50;;;12.30;76.50;;;;;;5036888;28;20195;-87
2021/05/20 09:00:23;;;;;;;9.00;6.00;;;12.30;77.80;;;;;;5036919;28;20192;-86
2021/05/20 09:02:50;;;;;;;9.93;6.47;;;12.50;77.70;;;;;;5054236;28;20207;-87
2021/05/20 09:05:18;;;;;;;7.27;5.30;;;12.60;77.70;;;;;;5036553;28;20180;-87
2021/05/20 09:07:59;;;;;;;8.47;6.97;;;12.60;76.80;;;;;;5054340;28;20222;-85
2021/05/20 09:10:27;;;;;;;8.87;6.87;;;12.90;76.90;;;;;;5054111;28;20148;-86
2021/05/20 09:12:56;;;;;;;8.80;7.90;;;13.00;75.40;;;;;;5036227;28;20179;-87
2021/05/20 09:15:38;;;;;;;8.17;7.37;;;13.40;77.20;;;;;;5036288;28;20176;-86
2021/05/20 09:18:06;;;;;;;9.50;8.30;;;13.50;74.60;;;;;;5054356;28;20192;-86
2021/05/20 09:20:32;;;;;;;8.50;7.67;;;13.30;75.00;;;;;;5054062;28;20190;-86
2021/05/20 09:23:04;;;;;;;7.13;6.43;;;13.20;75.40;;;;;;5036027;28;20266;-86
2021/05/20 09:25:32;;;;;;;8.17;6.47;;;13.50;74.60;;;;;;5053919;28;20172;-86
2021/05/20 09:27:57;;;;;;;10.20;6.80;;;13.70;73.20;;;;;;5053848;28;20203;-86
2021/05/20 09:30:25;;;;;;;7.50;6.77;;;13.60;73.90;;;;;;5053842;28;20164;-86
2021/05/20 09:33:04;;;;;;;7.50;6.30;;;13.70;73.10;;;;;;5053837;28;20231;-86
2021/05/20 09:35:43;;;;;;;10.10;6.37;;;13.70;72.90;;;;;;5054139;28;20148;-86
2021/05/20 09:38:16;;;;;;;9.67;6.90;;;13.80;73.10;;;;;;5053401;28;20187;-86
2021/05/20 09:40:44;;;;;;;7.97;7.13;;;13.40;74.10;;;;;;5036781;28;20172;-87
2021/05/20 09:43:17;;;;;;;10.93;7.50;;;13.50;73.90;;;;;;5035633;28;20262;-86
2021/05/20 09:45:44;;;;;;;7.50;6.60;;;13.30;74.40;;;;;;5053554;28;20168;-86
2021/05/20 09:48:10;;;;;;;8.70;7.20;;;13.50;73.40;;;;;;5077586;22;20227;-86
2021/05/20 09:50:45;;;;;;;7.67;6.87;;;13.80;74.70;;;;;;5035542;28;20183;-86
2021/05/20 09:53:29;;;;;;;7.20;6.47;;;13.50;72.50;;;;;;5053778;28;20247;-86
2021/05/20 09:56:02;;;;;;;10.13;7.63;;;13.50;72.80;;;;;;5035047;28;20937;-85
2021/05/20 09:58:30;;;;;;;11.13;7.88;;;13.60;74.00;;;;;;5053082;28;20423;-86
2021/05/20 10:01:00;;;;;;;8.90;6.83;;;13.70;72.90;;;;;;5053271;28;20574;-86
2021/05/20 10:03:27;;;;;;;9.80;6.77;;;14.00;74.00;;;;;;5053228;28;20184;-86
2021/05/20 10:05:59;;;;;;;9.90;6.57;;;14.20;72.90;;;;;;5035386;28;20186;-86
2021/05/20 10:08:26;;;;;;;11.53;7.37;;;14.00;72.10;;;;;;5053480;28;20621;-86
2021/05/20 10:10:56;;;;;;;9.07;7.03;;;13.80;73.60;;;;;;5053492;28;20247;-86
2021/05/20 10:13:24;;;;;;;7.90;7.07;;;13.50;73.50;;;;;;5035593;28;20172;-85
2021/05/20 10:15:51;;;;;;;17.37;8.03;;;13.80;74.40;;;;;;5053098;28;20217;-85
2021/05/20 10:18:21;;;;;;;7.50;6.40;;;13.70;75.90;;;;;;5035094;28;20553;-86
2021/05/20 10:20:50;;;;;;;9.97;5.97;;;13.50;76.10;;;;;;5035221;28;20702;-86
2021/05/20 10:23:21;;;;;;;6.37;5.77;;;13.60;74.90;;;;;;5035148;28;20184;-86
2021/05/20 10:25:48;;;;;;;7.10;6.40;;;13.80;74.60;;;;;;5053289;28;20309;-86
2021/05/20 10:28:16;;;;;;;7.20;6.50;;;13.80;74.30;;;;;;5052817;28;20204;-85
2021/05/20 10:30:46;;;;;;;7.07;6.37;;;13.70;74.30;;;;;;5052902;28;20253;-86
2021/05/20 10:33:11;;;;;;;7.60;6.90;;;13.60;75.50;;;;;;5035198;28;20179;-86
2021/05/20 10:35:44;;;;;;;7.63;6.87;;;13.70;75.60;;;;;;5052886;28;20160;-86
2021/05/20 10:38:13;;;;;;;6.90;6.20;;;13.30;75.70;;;;;;5052770;28;20196;-86
2021/05/20 10:40:39;;;;;;;6.47;4.97;;;13.30;75.80;;;;;;5034995;28;20186;-86
2021/05/20 10:43:10;;;;;;;9.87;6.57;;;13.40;74.40;;;;;;5035076;28;20183;-86
2021/05/20 10:45:38;;;;;;;7.40;6.37;;;13.30;76.90;;;;;;5052870;28;20163;-85
2021/05/20 10:48:04;;;;;;;9.13;7.80;;;13.40;74.80;;;;;;5052448;28;20215;-86
2021/05/20 10:50:55;;;;;;;8.77;7.17;;;13.60;75.60;;;;;;5054573;28;20168;-86
2021/05/20 10:53:46;;;;;;;7.73;6.80;;;14.30;74.70;;;;;;5038856;28;20253;-85
2021/05/20 10:56:14;;;;;;;6.67;5.97;;;14.20;73.70;;;;;;5038828;28;20703;-85
2021/05/20 10:58:43;;;;;;;5.97;5.23;;;14.20;72.20;;;;;;5038736;28;20214;-85
2021/05/20 11:01:37;;;;;;;10.03;6.73;;;14.20;71.10;;;;;;5056576;28;20656;-85
2021/05/20 11:04:06;;;;;;;8.03;6.80;;;14.20;72.80;;;;;;5038976;28;20671;-85
2021/05/20 11:06:35;;;;;;;8.13;7.17;;;14.30;72.90;;;;;;5056415;28;20648;-85
2021/05/20 11:09:02;;;;;;;8.00;7.20;;;14.30;73.80;;;;;;5038553;28;20196;-85
2021/05/20 11:11:31;;;;;;;9.03;7.00;;;14.30;74.60;;;;;;5056437;28;20172;-85
2021/05/20 11:14:13;;;;;;;7.00;6.03;;;14.60;74.90;;;;;;5056592;28;20183;-85
2021/05/20 11:16:40;;;;;;;7.13;5.80;;;14.90;72.80;;;;;;5038506;28;20269;-85
2021/05/20 11:19:21;;;;;;;6.80;5.73;;;15.20;72.60;;;;;;5038393;28;20255;-85
2021/05/20 11:21:59;;;;;;;7.43;5.87;;;15.30;72.40;;;;;;5056247;28;20168;-85
2021/05/20 11:24:35;;;;;;;8.80;5.90;;;15.30;70.90;;;;;;5038309;28;20180;-85
2021/05/20 11:27:06;;;;;;;9.20;6.37;;;15.30;69.00;;;;;;5038238;28;20199;-85
2021/05/20 11:29:33;;;;;;;6.97;6.27;;;15.40;68.60;;;;;;5038191;28;20267;-86
2021/05/20 11:32:11;;;;;;;8.25;6.78;;;15.40;68.70;;;;;;5038215;28;20635;-86
2021/05/20 11:37:03;;;;;;;7.97;5.82;;;15.40;68.50;;;;;;5055962;28;20222;-86
2021/05/20 11:39:28;;;;;;;7.78;4.68;;;15.60;68.90;;;;;;5038012;28;20648;-86
2021/05/20 11:41:56;;;;;;;7.75;5.35;;;15.50;68.10;;;;;;5037913;28;20234;-86
2021/05/20 11:44:26;;;;;;;9.02;5.22;;;15.30;67.60;;;;;;5037954;28;20180;-86
2021/05/20 11:46:54;;;;;;;9.67;6.77;;;14.60;71.60;;;;;;5038379;28;20266;-86
2021/05/20 11:49:23;;;;;;;5.83;4.50;;;13.50;77.30;;;;;;5037732;28;20223;-86
2021/05/20 11:51:51;;;;;;;6.33;4.50;;;12.90;78.40;;;;;;5055658;28;20252;-87
2021/05/20 11:54:19;;;;;;;5.20;3.47;;;12.40;80.90;;;;;;5037836;28;20188;-87
2021/05/20 11:56:56;;;;;;;4.87;2.90;;;12.30;80.40;;;;;;5037880;28;20214;-88
2021/05/20 11:59:38;;;;;;;5.83;2.53;;;11.50;83.20;;;;;;5055539;28;20191;-88
2021/05/20 12:02:15;;;;;;;2.03;1.50;;;11.40;83.50;;;;;;5036353;28;20297;-89
2021/05/20 12:04:41;;;;;;;1.73;1.53;;;11.20;83.40;;;;;;5038087;28;20650;-89
2021/05/20 12:07:16;;;;;;;4.50;1.63;;;11.00;84.50;;;;;;5037488;28;20690;-89
2021/05/20 12:09:41;;;;;;;1.90;1.73;;;11.40;84.50;;;;;;5037538;28;20163;-88
2021/05/20 12:12:09;;;;;;;1.83;1.30;;;11.60;83.80;;;;;;5037433;28;20183;-87
2021/05/20 12:14:36;;;;;;;3.13;1.47;;;11.70;83.60;;;;;;5055267;28;20534;-88
2021/05/20 12:17:10;;;;;;;1.10;1.00;;;11.80;83.30;;;;;;5055167;28;20545;-87
2021/05/20 12:19:43;;;;;;;1.13;1.07;;;11.80;82.80;;;;;;5055160;28;20177;-87
2021/05/20 12:22:29;;;;;;;1.53;1.00;;;11.90;82.50;;;;;;5037544;28;20263;-88
2021/05/20 12:24:59;;;;;;;1.40;1.30;;;12.00;82.50;;;;;;5037551;28;20171;-87
2021/05/20 12:27:51;;;;;;;1.83;1.40;;;11.80;81.60;;;;;;5036949;28;20329;-87
2021/05/20 12:30:26;;;;;;;2.33;1.40;;;11.80;82.40;;;;;;5051721;28;20310;-88
2021/05/20 12:33:07;;;;;;;1.33;1.27;;;11.90;82.60;;;;;;5054928;28;20161;-87
2021/05/20 12:35:36;;;;;;;1.80;1.20;;;12.10;82.80;;;;;;5037681;28;20247;-88
2021/05/20 12:38:05;;;;;;;1.53;1.40;;;12.20;82.80;;;;;;5036998;28;20238;-87
2021/05/20 12:40:34;;;;;;;1.10;1.10;;;12.20;81.10;;;;;;5036975;28;20665;-87
2021/05/20 12:43:03;;;;;;;2.33;1.53;;;12.30;81.40;;;;;;5036954;28;20172;-87
2021/05/20 12:45:30;;;;;;;1.53;1.43;;;12.60;81.70;;;;;;5037355;28;20176;-87
2021/05/20 12:47:56;;;;;;;2.93;1.60;;;12.80;81.70;;;;;;5036836;28;20224;-88
2021/05/20 12:50:28;;;;;;;2.17;1.53;;;13.00;80.30;;;;;;5054979;28;20183;-87